createdAt,value
2022-10-22T00:01:57.864Z,100058.16
2022-10-22T00:06:59.471Z,100051.56
2022-10-22T00:12:01.092Z,100026.91
2022-10-22T00:17:02.648Z,100013.16
2022-10-22T00:22:06.814Z,100045.31
2022-10-22T00:27:10.079Z,100078.66
2022-10-22T00:32:11.681Z,100060.31
2022-10-22T00:37:13.157Z,100068.91
2022-10-22T00:42:23.696Z,100086.88
2022-10-22T00:47:25.698Z,100091.25
2022-10-22T00:52:28.123Z,100075.03
2022-10-22T00:57:29.636Z,100070.56
2022-10-22T01:02:31.165Z,100061.81
2022-10-22T01:07:40.707Z,100058.16
2022-10-22T01:13:13.495Z,100062.97
2022-10-22T01:18:25.734Z,100068.72
2022-10-22T01:24:07.922Z,100071.06
2022-10-22T01:29:15.765Z,100090.66
2022-10-22T01:34:19.054Z,100094.97
2022-10-22T01:39:23.259Z,100135.19
2022-10-22T01:44:32.902Z,100166.81
2022-10-22T01:50:11.366Z,100177.38
2022-10-22T01:55:22.054Z,100172.66
2022-10-22T02:00:23.910Z,100176.28
2022-10-22T02:05:32.899Z,100150.84
2022-10-22T02:10:38.127Z,100120.22
2022-10-22T02:15:40.882Z,100138.38
2022-10-22T02:20:42.669Z,100120.69
2022-10-22T02:25:49.435Z,100115.88
2022-10-22T02:31:01.797Z,100107.78
2022-10-22T02:36:04.417Z,100102.16
2022-10-22T02:41:06.270Z,100090.16
2022-10-22T02:46:07.813Z,100080.66
2022-10-22T02:51:09.423Z,100084.78
2022-10-22T02:56:10.857Z,100102.72
2022-10-22T03:01:15.286Z,100108.69
2022-10-22T03:06:18.236Z,100078.00
2022-10-22T03:11:19.781Z,100074.84
2022-10-22T03:16:21.257Z,100099.81
2022-10-22T03:21:37.517Z,100118.09
2022-10-22T03:26:41.936Z,100103.75
2022-10-22T03:31:43.429Z,100103.00
2022-10-22T03:36:45.153Z,100110.13
2022-10-22T03:41:48.464Z,100115.13
2022-10-22T03:46:50.157Z,100117.69
2022-10-22T03:51:51.640Z,100133.78
2022-10-22T03:56:53.092Z,100143.97
2022-10-22T04:01:54.537Z,100149.75
2022-10-22T04:06:56.299Z,100173.81
2022-10-22T04:11:57.707Z,100171.25
2022-10-22T04:16:59.235Z,100176.22
2022-10-22T04:22:00.652Z,100176.16
2022-10-22T04:27:02.087Z,100168.56
2022-10-22T04:32:03.564Z,100169.44
2022-10-22T04:37:05.101Z,100182.41
2022-10-22T04:42:06.555Z,100189.31
2022-10-22T04:47:08.004Z,100197.97
2022-10-22T04:52:09.508Z,100192.09
2022-10-22T04:57:10.920Z,100193.06
2022-10-22T05:02:12.341Z,100197.22
2022-10-22T05:07:14.376Z,100197.13
2022-10-22T05:12:15.832Z,100207.38
2022-10-22T05:17:17.272Z,100201.72
2022-10-22T05:22:18.798Z,100213.81
2022-10-22T05:27:20.207Z,100228.41
2022-10-22T05:32:21.687Z,100242.16
2022-10-22T05:37:23.199Z,100246.53
2022-10-22T05:42:24.655Z,100251.66
2022-10-22T05:47:26.793Z,100254.41
2022-10-22T05:52:28.250Z,100266.72
2022-10-22T05:57:29.668Z,100265.19
2022-10-22T06:02:31.198Z,100277.97
2022-10-22T06:07:33.464Z,100273.56
2022-10-22T06:12:34.919Z,100271.66
2022-10-22T06:17:36.425Z,100280.00
2022-10-22T06:22:38.025Z,100276.25
2022-10-22T06:27:39.642Z,100282.78
2022-10-22T06:32:41.537Z,100294.25
2022-10-22T06:37:43.383Z,100301.50
2022-10-22T06:42:44.977Z,100304.28
2022-10-22T06:47:47.348Z,100299.41
2022-10-22T06:52:48.768Z,100308.19
2022-10-22T06:57:50.297Z,100322.19
2022-10-22T07:02:57.661Z,100323.88
2022-10-22T07:08:00.775Z,100332.28
2022-10-22T07:13:02.241Z,100350.63
2022-10-22T07:18:04.717Z,100351.25
2022-10-22T07:23:06.152Z,100361.03
2022-10-22T07:28:07.911Z,100367.94
2022-10-22T07:33:09.536Z,100367.75
2022-10-22T07:38:11.003Z,100368.59
2022-10-22T07:43:12.636Z,100369.84
2022-10-22T07:48:14.533Z,100369.09
2022-10-22T07:53:16.491Z,100369.28
2022-10-22T07:58:19.252Z,100364.81
2022-10-22T08:03:21.184Z,100364.41
2022-10-22T08:08:25.862Z,100366.50
2022-10-22T08:13:30.775Z,100362.19
2022-10-22T08:18:32.350Z,100370.47
2022-10-22T08:23:34.474Z,100370.75
2022-10-22T08:28:37.236Z,100378.66
2022-10-22T08:33:39.432Z,100382.72
2022-10-22T08:38:40.896Z,100388.56
2022-10-22T08:43:56.723Z,100398.22
2022-10-22T08:49:01.722Z,100400.19
2022-10-22T08:54:35.221Z,100413.00
2022-10-22T09:00:09.164Z,100418.66
2022-10-22T09:05:28.019Z,100425.03
2022-10-22T09:10:36.238Z,100421.03
2022-10-22T09:15:38.411Z,100427.81
2022-10-22T09:20:54.471Z,100433.59
2022-10-22T09:25:57.277Z,100436.75
2022-10-22T09:36:07.775Z,100442.28
2022-10-22T09:41:09.438Z,100440.16
2022-10-22T09:46:19.637Z,100442.81
2022-10-22T09:51:24.236Z,100450.22
2022-10-22T09:56:28.445Z,100446.06
2022-10-22T10:01:40.951Z,100450.19
2022-10-22T10:06:44.630Z,100448.72
2022-10-22T10:12:12.484Z,100453.50
2022-10-22T10:17:16.999Z,100456.66
2022-10-22T10:22:33.976Z,100452.47
2022-10-22T10:27:40.250Z,100451.25
2022-10-22T10:33:00.538Z,100450.09
2022-10-22T10:38:20.280Z,100463.69
2022-10-22T10:43:41.841Z,100457.66
2022-10-22T10:48:51.156Z,100450.00
2022-10-22T10:54:04.959Z,100441.16
2022-10-22T10:59:28.467Z,100444.13
2022-10-22T11:05:06.547Z,100440.19
2022-10-22T11:10:40.374Z,100449.81
2022-10-22T11:15:48.631Z,100441.13
2022-10-22T11:21:11.621Z,100439.47
2022-10-22T11:26:22.228Z,100442.00
2022-10-22T11:31:25.795Z,100433.22
2022-10-22T11:36:28.519Z,100443.44
2022-10-22T11:41:31.905Z,100445.00
2022-10-22T11:46:52.133Z,100434.09
2022-10-22T11:52:21.611Z,100440.03
2022-10-22T11:57:38.175Z,100436.66
2022-10-22T12:02:46.150Z,100424.28
2022-10-22T12:07:57.223Z,100420.16
2022-10-22T12:13:10.844Z,100426.44
2022-10-22T12:23:21.181Z,100414.16
2022-10-22T12:28:23.068Z,100411.19
2022-10-22T12:33:26.401Z,100411.00
2022-10-22T12:38:27.875Z,100396.16
2022-10-22T12:43:30.450Z,100392.31
2022-10-22T12:48:36.146Z,100399.50
2022-10-22T12:53:43.421Z,100391.50
2022-10-22T12:59:11.391Z,100391.06
2022-10-22T13:04:12.862Z,100384.22
2022-10-22T13:09:26.808Z,100384.66
2022-10-22T13:14:34.119Z,100394.72
2022-10-22T13:19:38.331Z,100385.78
2022-10-22T13:24:49.730Z,100390.44
2022-10-22T13:29:51.525Z,100384.13
2022-10-22T13:34:53.428Z,100388.81
2022-10-22T13:39:54.896Z,100370.44
2022-10-22T13:44:56.413Z,100380.44
2022-10-22T13:50:01.545Z,100381.50
2022-10-22T13:55:13.514Z,100376.66
2022-10-22T14:00:22.308Z,100380.69
2022-10-22T14:05:23.841Z,100383.72
2022-10-22T14:10:25.425Z,100363.47
2022-10-22T14:15:28.635Z,100360.16
2022-10-22T14:20:33.551Z,100362.03
2022-10-22T14:25:35.045Z,100368.53
2022-10-22T14:30:36.688Z,100373.09
2022-10-22T14:35:38.212Z,100369.22
2022-10-22T14:40:41.938Z,100367.34
2022-10-22T14:45:43.403Z,100373.78
2022-10-22T14:50:45.067Z,100377.22
2022-10-22T14:55:49.106Z,100372.25
2022-10-22T15:00:50.791Z,100366.59
2022-10-22T15:05:53.819Z,100375.03
2022-10-22T15:11:07.002Z,100385.00
2022-10-22T15:16:10.531Z,100381.72
2022-10-22T15:21:16.658Z,100377.81
2022-10-22T15:26:18.181Z,100375.78
2022-10-22T15:31:44.363Z,100370.47
2022-10-22T15:36:45.931Z,100380.66
2022-10-22T15:41:48.737Z,100383.19
2022-10-22T15:51:57.356Z,100382.88
2022-10-22T15:57:00.147Z,100381.31
2022-10-22T16:02:01.686Z,100388.94
2022-10-22T16:07:03.177Z,100381.53
2022-10-22T16:12:04.848Z,100380.47
2022-10-22T16:17:06.289Z,100373.94
2022-10-22T16:22:10.144Z,100376.75
2022-10-22T16:27:11.677Z,100381.06
2022-10-22T16:32:13.311Z,100391.44
2022-10-22T16:37:14.751Z,100388.06
2022-10-22T16:42:16.262Z,100397.63
2022-10-22T16:47:17.745Z,100403.34
2022-10-22T16:52:19.248Z,100409.09
2022-10-22T16:57:20.684Z,100407.81
2022-10-22T17:02:22.111Z,100420.13
2022-10-22T17:07:23.540Z,100428.44
2022-10-22T17:12:25.100Z,100420.25
2022-10-22T17:17:26.506Z,100431.63
2022-10-22T17:22:27.931Z,100436.16
2022-10-22T17:27:29.379Z,100435.19
2022-10-22T17:32:30.967Z,100446.03
2022-10-22T17:37:32.607Z,100443.34
2022-10-22T17:42:34.164Z,100445.19
2022-10-22T17:47:36.305Z,100449.03
2022-10-22T17:52:37.757Z,100449.34
2022-10-22T17:57:39.659Z,100449.06
2022-10-22T18:02:42.413Z,100441.88
2022-10-22T18:07:44.091Z,100452.53
2022-10-22T18:12:45.688Z,100447.66
2022-10-22T18:17:50.146Z,100438.75
2022-10-22T18:22:54.267Z,100437.41
2022-10-22T18:27:55.743Z,100430.09
2022-10-22T18:32:57.189Z,100427.81
2022-10-22T18:37:58.613Z,100422.16
2022-10-22T18:43:00.004Z,100430.03
2022-10-22T18:48:01.606Z,100425.16
2022-10-22T18:53:03.099Z,100442.41
2022-10-22T18:58:04.539Z,100440.81
2022-10-22T19:03:06.130Z,100438.47
2022-10-22T19:08:07.561Z,100437.84
2022-10-22T19:13:08.942Z,100436.34
2022-10-22T19:18:10.663Z,100432.56
2022-10-22T19:23:12.143Z,100432.88
2022-10-22T19:28:13.565Z,100422.84
2022-10-22T19:33:14.991Z,100419.66
2022-10-22T19:38:16.416Z,100414.72
2022-10-22T19:43:18.951Z,100425.09
2022-10-22T19:48:20.586Z,100425.22
2022-10-22T19:53:22.068Z,100414.09
2022-10-22T19:58:23.567Z,100420.59
2022-10-22T20:03:24.986Z,100417.69
2022-10-22T20:08:26.375Z,100409.03
2022-10-22T20:13:28.058Z,100420.56
2022-10-22T20:18:29.527Z,100419.22
2022-10-22T20:23:31.026Z,100428.69
2022-10-22T20:28:32.565Z,100428.81
2022-10-22T20:33:33.999Z,100412.06
2022-10-22T20:43:45.111Z,100416.47
2022-10-22T20:48:46.796Z,100411.34
2022-10-22T20:53:48.431Z,100406.50
2022-10-22T20:58:53.786Z,100411.19
2022-10-22T21:03:55.355Z,100408.22
2022-10-22T21:08:56.838Z,100413.72
2022-10-22T21:13:59.502Z,100413.19
2022-10-22T21:19:01.057Z,100407.47
2022-10-22T21:24:02.488Z,100397.34
2022-10-22T21:29:04.336Z,100401.84
2022-10-22T21:34:05.930Z,100401.94
2022-10-22T21:39:07.519Z,100404.75
2022-10-22T21:44:08.995Z,100412.66
2022-10-22T21:49:10.900Z,100409.56
2022-10-22T21:54:12.845Z,100419.13
2022-10-22T21:59:14.345Z,100426.13
2022-10-22T22:04:15.774Z,100428.16
2022-10-22T22:09:17.478Z,100423.25
2022-10-22T22:14:18.936Z,100419.28
2022-10-22T22:19:20.385Z,100426.50
2022-10-22T22:24:21.864Z,100419.41
2022-10-22T22:29:23.285Z,100411.69
2022-10-22T22:34:24.721Z,100418.81
2022-10-22T22:39:26.623Z,100412.84
2022-10-22T22:44:28.030Z,100409.47
2022-10-22T22:49:29.481Z,100397.75
2022-10-22T22:54:30.980Z,100403.00
2022-10-22T22:59:32.418Z,100410.06
2022-10-22T23:04:33.911Z,100411.19
2022-10-22T23:09:35.432Z,100411.41
2022-10-22T23:14:36.900Z,100411.63
2022-10-22T23:19:38.323Z,100406.63
2022-10-22T23:24:39.983Z,100404.97
2022-10-22T23:29:41.449Z,100410.84
2022-10-22T23:34:42.955Z,100403.25
2022-10-22T23:39:44.384Z,100399.06
2022-10-22T23:44:45.839Z,100400.88
2022-10-22T23:49:47.309Z,100395.78
2022-10-22T23:54:48.899Z,100387.44
2022-10-22T23:59:50.329Z,100378.22
